sensor_id;sensor_type;location;lat;lon;timestamp;pressure;altitude;pressure_sealevel;temperature;humidity
10618;BME280;5356;43.526;26.534;2022-09-16T00:01:26;98253.97;;;21.71;100.00
10618;BME280;5356;43.526;26.534;2022-09-16T00:03:55;98238.53;;;21.71;100.00
10618;BME280;5356;43.526;26.534;2022-09-16T00:06:24;98249.03;;;21.64;100.00
10618;BME280;5356;43.526;26.534;2022-09-16T00:08:51;98252.22;;;21.58;100.00
10618;BME280;5356;43.526;26.534;2022-09-16T00:11:17;98246.94;;;21.61;100.00
10618;BME280;5356;43.526;26.534;2022-09-16T00:13:43;98251.25;;;21.62;100.00
10618;BME280;5356;43.526;26.534;2022-09-16T00:16:20;98243.88;;;21.54;100.00
10618;BME280;5356;43.526;26.534;2022-09-16T00:18:46;98245.00;;;21.53;100.00
10618;BME280;5356;43.526;26.534;2022-09-16T00:21:12;98245.50;;;21.55;100.00
10618;BME280;5356;43.526;26.534;2022-09-16T00:23:38;98249.50;;;21.58;100.00
10618;BME280;5356;43.526;26.534;2022-09-16T00:26:04;98247.72;;;21.53;100.00
10618;BME280;5356;43.526;26.534;2022-09-16T00:28:30;98247.56;;;21.49;100.00
10618;BME280;5356;43.526;26.534;2022-09-16T00:31:00;98257.13;;;21.47;100.00
10618;BME280;5356;43.526;26.534;2022-09-16T00:33:25;98258.84;;;21.43;100.00
10618;BME280;5356;43.526;26.534;2022-09-16T00:35:51;98253.41;;;21.43;100.00
10618;BME280;5356;43.526;26.534;2022-09-16T00:38:17;98249.13;;;21.42;100.00
10618;BME280;5356;43.526;26.534;2022-09-16T00:40:47;98244.44;;;21.34;100.00
10618;BME280;5356;43.526;26.534;2022-09-16T00:43:17;98249.41;;;21.32;100.00
10618;BME280;5356;43.526;26.534;2022-09-16T00:45:47;98239.97;;;21.29;100.00
10618;BME280;5356;43.526;26.534;2022-09-16T00:48:20;98235.34;;;21.29;100.00
10618;BME280;5356;43.526;26.534;2022-09-16T00:50:54;98232.16;;;21.27;100.00
10618;BME280;5356;43.526;26.534;2022-09-16T00:53:24;98241.88;;;21.28;100.00
10618;BME280;5356;43.526;26.534;2022-09-16T00:55:53;98233.56;;;21.25;100.00
10618;BME280;5356;43.526;26.534;2022-09-16T00:58:31;98234.69;;;21.24;100.00
10618;BME280;5356;43.526;26.534;2022-09-16T01:00:59;98233.38;;;21.13;100.00
10618;BME280;5356;43.526;26.534;2022-09-16T01:03:26;98231.97;;;21.15;100.00
10618;BME280;5356;43.526;26.534;2022-09-16T01:05:53;98238.63;;;21.09;100.00
10618;BME280;5356;43.526;26.534;2022-09-16T01:08:18;98242.91;;;21.10;100.00
10618;BME280;5356;43.526;26.534;2022-09-16T01:10:44;98238.00;;;21.12;100.00
10618;BME280;5356;43.526;26.534;2022-09-16T01:13:11;98235.91;;;21.09;100.00
10618;BME280;5356;43.526;26.534;2022-09-16T01:15:57;98236.84;;;21.04;100.00
10618;BME280;5356;43.526;26.534;2022-09-16T01:18:30;98247.03;;;21.07;100.00
10618;BME280;5356;43.526;26.534;2022-09-16T01:32:05;98248.16;;;21.06;100.00
10618;BME280;5356;43.526;26.534;2022-09-16T01:37:49;98249.59;;;21.04;100.00
10618;BME280;5356;43.526;26.534;2022-09-16T01:40:52;98252.28;;;21.04;100.00
10618;BME280;5356;43.526;26.534;2022-09-16T01:48:37;98258.50;;;21.04;100.00
10618;BME280;5356;43.526;26.534;2022-09-16T01:56:25;98258.63;;;20.99;100.00
10618;BME280;5356;43.526;26.534;2022-09-16T02:01:49;98257.50;;;21.00;100.00
10618;BME280;5356;43.526;26.534;2022-09-16T02:04:22;98249.53;;;20.95;100.00
10618;BME280;5356;43.526;26.534;2022-09-16T02:06:48;98262.47;;;20.98;100.00
10618;BME280;5356;43.526;26.534;2022-09-16T02:09:20;98265.63;;;21.00;100.00
10618;BME280;5356;43.526;26.534;2022-09-16T02:11:48;98259.94;;;21.02;100.00
10618;BME280;5356;43.526;26.534;2022-09-16T02:14:23;98246.25;;;21.07;100.00
10618;BME280;5356;43.526;26.534;2022-09-16T02:17:10;98249.59;;;21.04;100.00
10618;BME280;5356;43.526;26.534;2022-09-16T02:19:48;98257.47;;;20.92;100.00
10618;BME280;5356;43.526;26.534;2022-09-16T02:22:22;98258.84;;;20.80;100.00
10618;BME280;5356;43.526;26.534;2022-09-16T02:24:51;98256.81;;;20.86;100.00
10618;BME280;5356;43.526;26.534;2022-09-16T02:27:20;98253.63;;;20.84;100.00
10618;BME280;5356;43.526;26.534;2022-09-16T02:29:50;98253.69;;;20.70;100.00
10618;BME280;5356;43.526;26.534;2022-09-16T02:32:19;98255.16;;;20.76;100.00
10618;BME280;5356;43.526;26.534;2022-09-16T02:34:49;98251.34;;;20.77;100.00
10618;BME280;5356;43.526;26.534;2022-09-16T02:37:28;98242.56;;;20.72;100.00
10618;BME280;5356;43.526;26.534;2022-09-16T02:39:58;98246.53;;;20.74;100.00
10618;BME280;5356;43.526;26.534;2022-09-16T02:42:28;98249.38;;;20.69;100.00
10618;BME280;5356;43.526;26.534;2022-09-16T02:44:54;98255.19;;;20.54;100.00
10618;BME280;5356;43.526;26.534;2022-09-16T02:52:56;98259.34;;;20.60;100.00
10618;BME280;5356;43.526;26.534;2022-09-16T02:55:31;98266.19;;;20.57;100.00
10618;BME280;5356;43.526;26.534;2022-09-16T02:57:59;98274.81;;;20.59;100.00
10618;BME280;5356;43.526;26.534;2022-09-16T03:00:26;98269.38;;;20.59;100.00
10618;BME280;5356;43.526;26.534;2022-09-16T03:02:54;98273.22;;;20.58;100.00
10618;BME280;5356;43.526;26.534;2022-09-16T03:05:19;98278.41;;;20.55;100.00
10618;BME280;5356;43.526;26.534;2022-09-16T03:07:45;98276.63;;;20.50;100.00
10618;BME280;5356;43.526;26.534;2022-09-16T03:10:13;98269.59;;;20.49;100.00
10618;BME280;5356;43.526;26.534;2022-09-16T03:12:57;98265.13;;;20.45;100.00
10618;BME280;5356;43.526;26.534;2022-09-16T03:15:50;98266.03;;;20.40;100.00
10618;BME280;5356;43.526;26.534;2022-09-16T03:18:21;98265.66;;;20.33;100.00
10618;BME280;5356;43.526;26.534;2022-09-16T03:26:21;98277.50;;;20.23;100.00
10618;BME280;5356;43.526;26.534;2022-09-16T03:36:47;98272.50;;;20.30;100.00
10618;BME280;5356;43.526;26.534;2022-09-16T03:39:14;98273.09;;;20.27;100.00
10618;BME280;5356;43.526;26.534;2022-09-16T03:41:40;98269.28;;;20.28;100.00
10618;BME280;5356;43.526;26.534;2022-09-16T03:44:06;98278.50;;;20.27;100.00
10618;BME280;5356;43.526;26.534;2022-09-16T03:46:32;98270.41;;;20.27;100.00
10618;BME280;5356;43.526;26.534;2022-09-16T03:48:57;98274.41;;;20.30;100.00
10618;BME280;5356;43.526;26.534;2022-09-16T03:51:24;98271.38;;;20.31;100.00
10618;BME280;5356;43.526;26.534;2022-09-16T03:53:51;98278.25;;;20.37;100.00
10618;BME280;5356;43.526;26.534;2022-09-16T03:56:17;98274.59;;;20.33;100.00
10618;BME280;5356;43.526;26.534;2022-09-16T03:58:42;98276.91;;;20.26;100.00
10618;BME280;5356;43.526;26.534;2022-09-16T04:01:08;98279.53;;;20.17;100.00
10618;BME280;5356;43.526;26.534;2022-09-16T04:03:33;98280.03;;;20.19;100.00
10618;BME280;5356;43.526;26.534;2022-09-16T04:06:02;98281.31;;;20.22;100.00
10618;BME280;5356;43.526;26.534;2022-09-16T04:08:28;98281.94;;;20.19;100.00
10618;BME280;5356;43.526;26.534;2022-09-16T04:10:55;98281.31;;;20.22;100.00
10618;BME280;5356;43.526;26.534;2022-09-16T04:13:21;98279.59;;;20.26;100.00
10618;BME280;5356;43.526;26.534;2022-09-16T04:15:47;98281.06;;;20.32;100.00
10618;BME280;5356;43.526;26.534;2022-09-16T04:18:12;98284.59;;;20.33;100.00
10618;BME280;5356;43.526;26.534;2022-09-16T04:20:38;98280.78;;;20.34;100.00
10618;BME280;5356;43.526;26.534;2022-09-16T04:23:03;98274.25;;;20.35;100.00
10618;BME280;5356;43.526;26.534;2022-09-16T04:25:29;98287.38;;;20.41;100.00
10618;BME280;5356;43.526;26.534;2022-09-16T04:27:55;98276.44;;;20.47;100.00
10618;BME280;5356;43.526;26.534;2022-09-16T04:30:21;98283.34;;;20.53;100.00
10618;BME280;5356;43.526;26.534;2022-09-16T04:32:51;98284.03;;;20.58;100.00
10618;BME280;5356;43.526;26.534;2022-09-16T04:35:16;98285.50;;;20.65;100.00
10618;BME280;5356;43.526;26.534;2022-09-16T04:37:44;98289.44;;;20.58;100.00
10618;BME280;5356;43.526;26.534;2022-09-16T04:40:10;98290.66;;;20.52;100.00
10618;BME280;5356;43.526;26.534;2022-09-16T04:42:36;98296.47;;;20.46;100.00
10618;BME280;5356;43.526;26.534;2022-09-16T04:45:01;98288.06;;;20.47;100.00
10618;BME280;5356;43.526;26.534;2022-09-16T04:47:27;98293.56;;;20.56;100.00
10618;BME280;5356;43.526;26.534;2022-09-16T04:49:53;98298.09;;;20.69;100.00
10618;BME280;5356;43.526;26.534;2022-09-16T04:52:19;98298.03;;;20.83;100.00
10618;BME280;5356;43.526;26.534;2022-09-16T04:54:44;98302.53;;;20.88;100.00
10618;BME280;5356;43.526;26.534;2022-09-16T04:57:10;98311.63;;;20.92;100.00
10618;BME280;5356;43.526;26.534;2022-09-16T04:59:35;98318.03;;;20.96;100.00
10618;BME280;5356;43.526;26.534;2022-09-16T05:02:00;98315.31;;;20.96;100.00
10618;BME280;5356;43.526;26.534;2022-09-16T05:04:26;98315.31;;;20.96;100.00
10618;BME280;5356;43.526;26.534;2022-09-16T05:06:52;98313.25;;;20.93;100.00
10618;BME280;5356;43.526;26.534;2022-09-16T05:09:17;98319.75;;;20.92;100.00
10618;BME280;5356;43.526;26.534;2022-09-16T05:11:46;98314.81;;;20.94;100.00
10618;BME280;5356;43.526;26.534;2022-09-16T05:14:16;98317.59;;;21.02;100.00
10618;BME280;5356;43.526;26.534;2022-09-16T05:16:42;98311.13;;;21.12;100.00
10618;BME280;5356;43.526;26.534;2022-09-16T05:19:10;98319.16;;;21.26;100.00
10618;BME280;5356;43.526;26.534;2022-09-16T05:21:36;98320.25;;;21.25;100.00
10618;BME280;5356;43.526;26.534;2022-09-16T05:24:04;98310.09;;;21.30;100.00
10618;BME280;5356;43.526;26.534;2022-09-16T05:26:33;98307.44;;;21.39;100.00
10618;BME280;5356;43.526;26.534;2022-09-16T05:29:09;98316.25;;;21.45;100.00
10618;BME280;5356;43.526;26.534;2022-09-16T05:31:36;98315.31;;;21.49;100.00
10618;BME280;5356;43.526;26.534;2022-09-16T05:34:05;98317.72;;;21.60;100.00
10618;BME280;5356;43.526;26.534;2022-09-16T05:36:33;98318.25;;;21.70;100.00
10618;BME280;5356;43.526;26.534;2022-09-16T05:39:00;98325.75;;;21.82;100.00
10618;BME280;5356;43.526;26.534;2022-09-16T05:41:26;98314.94;;;21.91;100.00
10618;BME280;5356;43.526;26.534;2022-09-16T05:43:52;98325.66;;;22.05;100.00
10618;BME280;5356;43.526;26.534;2022-09-16T05:46:22;98332.38;;;22.07;100.00
10618;BME280;5356;43.526;26.534;2022-09-16T05:48:48;98319.63;;;22.16;100.00
10618;BME280;5356;43.526;26.534;2022-09-16T05:51:16;98319.34;;;22.27;100.00
10618;BME280;5356;43.526;26.534;2022-09-16T05:53:42;98335.31;;;22.37;100.00
10618;BME280;5356;43.526;26.534;2022-09-16T05:56:16;98330.84;;;22.41;100.00
10618;BME280;5356;43.526;26.534;2022-09-16T05:58:42;98338.53;;;22.48;100.00
10618;BME280;5356;43.526;26.534;2022-09-16T06:01:14;98335.97;;;22.51;100.00
10618;BME280;5356;43.526;26.534;2022-09-16T06:03:42;98328.47;;;22.57;100.00
10618;BME280;5356;43.526;26.534;2022-09-16T06:08:52;98337.06;;;22.94;100.00
10618;BME280;5356;43.526;26.534;2022-09-16T06:11:19;98331.13;;;23.09;100.00
10618;BME280;5356;43.526;26.534;2022-09-16T06:13:44;98333.78;;;23.35;100.00
10618;BME280;5356;43.526;26.534;2022-09-16T06:16:10;98330.16;;;23.61;100.00
10618;BME280;5356;43.526;26.534;2022-09-16T06:18:38;98341.63;;;23.84;100.00
10618;BME280;5356;43.526;26.534;2022-09-16T06:21:07;98333.19;;;24.06;98.49
10618;BME280;5356;43.526;26.534;2022-09-16T06:23:33;98325.75;;;24.36;94.09
10618;BME280;5356;43.526;26.534;2022-09-16T06:26:04;98319.13;;;24.67;91.57
10618;BME280;5356;43.526;26.534;2022-09-16T06:28:30;98323.88;;;24.91;84.54
10618;BME280;5356;43.526;26.534;2022-09-16T06:31:04;98323.88;;;25.24;78.50
10618;BME280;5356;43.526;26.534;2022-09-16T06:33:30;98329.69;;;25.47;73.35
10618;BME280;5356;43.526;26.534;2022-09-16T06:35:56;98332.34;;;25.68;72.80
10618;BME280;5356;43.526;26.534;2022-09-16T06:38:23;98336.34;;;25.83;72.94
10618;BME280;5356;43.526;26.534;2022-09-16T06:40:48;98346.91;;;25.97;70.16
10618;BME280;5356;43.526;26.534;2022-09-16T06:43:15;98343.16;;;26.14;70.85
10618;BME280;5356;43.526;26.534;2022-09-16T06:45:40;98344.25;;;26.25;69.04
10618;BME280;5356;43.526;26.534;2022-09-16T06:48:06;98347.50;;;26.43;68.56
10618;BME280;5356;43.526;26.534;2022-09-16T06:50:31;98347.25;;;26.60;68.26
10618;BME280;5356;43.526;26.534;2022-09-16T06:52:56;98344.69;;;26.80;67.18
10618;BME280;5356;43.526;26.534;2022-09-16T06:55:22;98356.81;;;26.95;64.87
10618;BME280;5356;43.526;26.534;2022-09-16T06:57:47;98348.28;;;26.96;63.15
10618;BME280;5356;43.526;26.534;2022-09-16T07:00:13;98354.81;;;27.07;64.63
10618;BME280;5356;43.526;26.534;2022-09-16T07:02:39;98355.81;;;27.15;64.83
10618;BME280;5356;43.526;26.534;2022-09-16T07:05:04;98355.78;;;27.27;64.91
10618;BME280;5356;43.526;26.534;2022-09-16T07:07:30;98361.59;;;27.42;64.56
10618;BME280;5356;43.526;26.534;2022-09-16T07:09:56;98363.38;;;27.50;62.38
10618;BME280;5356;43.526;26.534;2022-09-16T07:12:22;98377.69;;;27.43;62.45
10618;BME280;5356;43.526;26.534;2022-09-16T07:14:48;98375.38;;;27.45;62.44
10618;BME280;5356;43.526;26.534;2022-09-16T07:17:13;98377.84;;;27.50;61.14
10618;BME280;5356;43.526;26.534;2022-09-16T07:19:39;98381.38;;;27.51;61.66
10618;BME280;5356;43.526;26.534;2022-09-16T07:22:06;98381.75;;;27.49;62.24
10618;BME280;5356;43.526;26.534;2022-09-16T07:24:32;98388.88;;;27.54;61.69
10618;BME280;5356;43.526;26.534;2022-09-16T07:26:57;98384.91;;;27.51;62.45
10618;BME280;5356;43.526;26.534;2022-09-16T07:29:23;98384.84;;;27.64;62.61
10618;BME280;5356;43.526;26.534;2022-09-16T07:31:48;98379.91;;;27.69;61.94
10618;BME280;5356;43.526;26.534;2022-09-16T07:34:14;98390.47;;;27.71;62.11
10618;BME280;5356;43.526;26.534;2022-09-16T07:36:44;98376.78;;;27.71;62.09
10618;BME280;5356;43.526;26.534;2022-09-16T07:39:12;98369.47;;;27.59;62.58
10618;BME280;5356;43.526;26.534;2022-09-16T07:41:40;98377.41;;;27.64;63.40
10618;BME280;5356;43.526;26.534;2022-09-16T07:44:08;98372.56;;;27.73;62.21
10618;BME280;5356;43.526;26.534;2022-09-16T07:46:35;98363.28;;;27.78;61.99
10618;BME280;5356;43.526;26.534;2022-09-16T07:49:03;98369.56;;;27.79;62.62
10618;BME280;5356;43.526;26.534;2022-09-16T07:51:30;98374.63;;;27.92;63.19
10618;BME280;5356;43.526;26.534;2022-09-16T07:53:57;98370.00;;;27.96;62.46
10618;BME280;5356;43.526;26.534;2022-09-16T07:56:29;98376.19;;;27.93;60.61
10618;BME280;5356;43.526;26.534;2022-09-16T07:58:55;98372.13;;;28.03;61.45
10618;BME280;5356;43.526;26.534;2022-09-16T08:01:21;98381.41;;;28.14;60.31
10618;BME280;5356;43.526;26.534;2022-09-16T08:03:47;98384.22;;;28.18;58.65
10618;BME280;5356;43.526;26.534;2022-09-16T08:06:15;98383.50;;;28.21;58.45
10618;BME280;5356;43.526;26.534;2022-09-16T08:08:41;98389.34;;;28.39;58.71
10618;BME280;5356;43.526;26.534;2022-09-16T08:11:07;98381.84;;;28.52;57.77
10618;BME280;5356;43.526;26.534;2022-09-16T08:13:34;98385.66;;;28.47;55.96
10618;BME280;5356;43.526;26.534;2022-09-16T08:16:04;98382.31;;;28.38;56.32
10618;BME280;5356;43.526;26.534;2022-09-16T08:18:30;98387.06;;;28.41;55.93
10618;BME280;5356;43.526;26.534;2022-09-16T08:20:56;98384.81;;;28.43;55.72
10618;BME280;5356;43.526;26.534;2022-09-16T08:23:22;98377.59;;;28.54;55.11
10618;BME280;5356;43.526;26.534;2022-09-16T08:25:58;98373.66;;;28.71;55.35
10618;BME280;5356;43.526;26.534;2022-09-16T08:28:24;98375.56;;;28.90;55.06
10618;BME280;5356;43.526;26.534;2022-09-16T08:30:50;98374.38;;;29.07;54.81
10618;BME280;5356;43.526;26.534;2022-09-16T08:33:16;98378.09;;;29.18;52.99
10618;BME280;5356;43.526;26.534;2022-09-16T08:35:45;98376.97;;;29.19;53.55
10618;BME280;5356;43.526;26.534;2022-09-16T08:38:11;98391.69;;;29.30;53.44
10618;BME280;5356;43.526;26.534;2022-09-16T08:40:43;98385.41;;;29.30;51.26
10618;BME280;5356;43.526;26.534;2022-09-16T08:48:53;98372.00;;;29.48;51.34
10618;BME280;5356;43.526;26.534;2022-09-16T08:51:21;98371.69;;;29.53;50.60
10618;BME280;5356;43.526;26.534;2022-09-16T08:56:19;98379.19;;;29.56;50.83
10618;BME280;5356;43.526;26.534;2022-09-16T08:58:48;98376.28;;;29.68;51.00
10618;BME280;5356;43.526;26.534;2022-09-16T09:01:26;98373.25;;;29.73;50.43
10618;BME280;5356;43.526;26.534;2022-09-16T09:03:54;98374.06;;;29.77;50.12
10618;BME280;5356;43.526;26.534;2022-09-16T09:09:41;98372.69;;;29.87;50.45
10618;BME280;5356;43.526;26.534;2022-09-16T09:12:36;98359.16;;;30.02;49.45
10618;BME280;5356;43.526;26.534;2022-09-16T09:15:20;98371.78;;;30.06;49.42
10618;BME280;5356;43.526;26.534;2022-09-16T09:21:13;98379.19;;;30.02;48.21
10618;BME280;5356;43.526;26.534;2022-09-16T09:32:27;98359.19;;;29.79;49.10
10618;BME280;5356;43.526;26.534;2022-09-16T09:40:41;98343.13;;;29.35;49.03
10618;BME280;5356;43.526;26.534;2022-09-16T09:43:09;98349.72;;;29.30;49.52
10618;BME280;5356;43.526;26.534;2022-09-16T09:48:44;98352.66;;;29.41;48.66
10618;BME280;5356;43.526;26.534;2022-09-16T09:53:45;98347.31;;;29.71;48.21
10618;BME280;5356;43.526;26.534;2022-09-16T09:58:49;98350.88;;;29.98;48.05
10618;BME280;5356;43.526;26.534;2022-09-16T10:01:16;98363.13;;;30.04;48.22
10618;BME280;5356;43.526;26.534;2022-09-16T10:03:42;98351.88;;;30.13;47.72
10618;BME280;5356;43.526;26.534;2022-09-16T10:06:09;98337.56;;;30.27;47.57
10618;BME280;5356;43.526;26.534;2022-09-16T10:08:42;98341.25;;;30.38;46.72
10618;BME280;5356;43.526;26.534;2022-09-16T10:11:22;98348.00;;;30.44;46.59
10618;BME280;5356;43.526;26.534;2022-09-16T10:13:53;98349.72;;;30.56;46.24
10618;BME280;5356;43.526;26.534;2022-09-16T10:16:36;98345.47;;;30.62;46.15
10618;BME280;5356;43.526;26.534;2022-09-16T10:19:15;98352.22;;;30.68;45.69
10618;BME280;5356;43.526;26.534;2022-09-16T10:21:47;98364.19;;;30.79;45.66
10618;BME280;5356;43.526;26.534;2022-09-16T10:24:32;98352.94;;;30.92;45.57
10618;BME280;5356;43.526;26.534;2022-09-16T10:27:02;98345.19;;;31.01;44.95
10618;BME280;5356;43.526;26.534;2022-09-16T10:29:41;98358.63;;;31.09;45.33
10618;BME280;5356;43.526;26.534;2022-09-16T10:32:08;98350.50;;;31.24;44.82
10618;BME280;5356;43.526;26.534;2022-09-16T10:34:38;98345.38;;;31.22;44.44
10618;BME280;5356;43.526;26.534;2022-09-16T10:39:44;98345.47;;;31.29;43.87
10618;BME280;5356;43.526;26.534;2022-09-16T10:42:22;98336.00;;;31.27;43.41
10618;BME280;5356;43.526;26.534;2022-09-16T10:44:49;98342.22;;;31.20;42.97
10618;BME280;5356;43.526;26.534;2022-09-16T10:47:33;98337.69;;;31.39;42.94
10618;BME280;5356;43.526;26.534;2022-09-16T10:50:02;98328.00;;;31.56;42.39
10618;BME280;5356;43.526;26.534;2022-09-16T10:52:50;98330.34;;;31.53;42.47
10618;BME280;5356;43.526;26.534;2022-09-16T10:57:44;98329.66;;;31.64;42.21
10618;BME280;5356;43.526;26.534;2022-09-16T11:00:18;98335.56;;;31.62;42.28
10618;BME280;5356;43.526;26.534;2022-09-16T11:22:21;98304.81;;;32.12;40.59
10618;BME280;5356;43.526;26.534;2022-09-16T11:27:52;98310.81;;;32.25;40.24
10618;BME280;5356;43.526;26.534;2022-09-16T11:30:20;98304.88;;;32.23;40.28
10618;BME280;5356;43.526;26.534;2022-09-16T11:57:27;98265.56;;;31.67;39.41
10618;BME280;5356;43.526;26.534;2022-09-16T11:59:57;98266.38;;;31.71;39.95
10618;BME280;5356;43.526;26.534;2022-09-16T12:02:44;98260.78;;;31.60;39.98
10618;BME280;5356;43.526;26.534;2022-09-16T12:08:05;98254.44;;;31.52;40.17
10618;BME280;5356;43.526;26.534;2022-09-16T12:11:16;98251.34;;;31.58;40.71
10618;BME280;5356;43.526;26.534;2022-09-16T12:13:48;98252.13;;;31.58;40.69
10618;BME280;5356;43.526;26.534;2022-09-16T12:16:23;98251.69;;;31.52;40.43
10618;BME280;5356;43.526;26.534;2022-09-16T12:18:54;98247.28;;;31.44;40.56
10618;BME280;5356;43.526;26.534;2022-09-16T12:21:30;98238.66;;;31.42;40.61
10618;BME280;5356;43.526;26.534;2022-09-16T12:24:00;98251.75;;;31.60;40.47
10618;BME280;5356;43.526;26.534;2022-09-16T12:26:37;98243.59;;;31.81;40.35
10618;BME280;5356;43.526;26.534;2022-09-16T12:29:18;98245.22;;;31.82;40.39
10618;BME280;5356;43.526;26.534;2022-09-16T12:31:48;98248.44;;;31.95;40.44
10618;BME280;5356;43.526;26.534;2022-09-16T12:34:21;98243.78;;;32.10;40.18
10618;BME280;5356;43.526;26.534;2022-09-16T12:36:59;98246.53;;;32.06;40.32
10618;BME280;5356;43.526;26.534;2022-09-16T12:39:26;98244.91;;;32.02;39.96
10618;BME280;5356;43.526;26.534;2022-09-16T12:53:10;98245.06;;;31.64;40.82
10618;BME280;5356;43.526;26.534;2022-09-16T12:58:50;98235.00;;;31.35;41.04
10618;BME280;5356;43.526;26.534;2022-09-16T13:01:27;98235.00;;;31.31;41.29
10618;BME280;5356;43.526;26.534;2022-09-16T13:04:16;98234.94;;;31.27;41.29
10618;BME280;5356;43.526;26.534;2022-09-16T13:09:38;98248.47;;;30.99;41.92
10618;BME280;5356;43.526;26.534;2022-09-16T13:12:18;98254.69;;;30.92;41.82
10618;BME280;5356;43.526;26.534;2022-09-16T13:14:47;98242.84;;;30.88;42.19
10618;BME280;5356;43.526;26.534;2022-09-16T13:17:13;98246.03;;;30.90;42.12
10618;BME280;5356;43.526;26.534;2022-09-16T13:19:51;98239.91;;;30.70;42.60
10618;BME280;5356;43.526;26.534;2022-09-16T13:24:49;98238.97;;;30.55;42.75
10618;BME280;5356;43.526;26.534;2022-09-16T13:29:51;98249.47;;;30.46;42.96
10618;BME280;5356;43.526;26.534;2022-09-16T13:37:52;98261.16;;;30.39;43.22
10618;BME280;5356;43.526;26.534;2022-09-16T13:40:29;98269.34;;;30.32;43.61
10618;BME280;5356;43.526;26.534;2022-09-16T13:45:43;98278.16;;;30.18;44.24
10618;BME280;5356;43.526;26.534;2022-09-16T13:48:11;98280.28;;;30.02;44.29
10618;BME280;5356;43.526;26.534;2022-09-16T13:50:44;98296.59;;;29.91;44.96
10618;BME280;5356;43.526;26.534;2022-09-16T13:53:20;98293.69;;;29.81;45.10
10618;BME280;5356;43.526;26.534;2022-09-16T13:55:48;98288.56;;;29.75;46.29
10618;BME280;5356;43.526;26.534;2022-09-16T13:58:30;98275.13;;;29.70;47.90
10618;BME280;5356;43.526;26.534;2022-09-16T14:01:07;98264.75;;;29.60;48.66
10618;BME280;5356;43.526;26.534;2022-09-16T14:14:31;98263.66;;;28.96;57.98
10618;BME280;5356;43.526;26.534;2022-09-16T14:17:03;98271.03;;;28.92;58.31
10618;BME280;5356;43.526;26.534;2022-09-16T14:19:33;98283.06;;;28.87;58.67
10618;BME280;5356;43.526;26.534;2022-09-16T14:22:12;98288.16;;;28.85;60.29
10618;BME280;5356;43.526;26.534;2022-09-16T14:24:40;98279.09;;;28.84;61.26
10618;BME280;5356;43.526;26.534;2022-09-16T14:27:27;98274.25;;;28.74;62.67
10618;BME280;5356;43.526;26.534;2022-09-16T14:30:02;98266.97;;;28.62;64.30
10618;BME280;5356;43.526;26.534;2022-09-16T14:32:32;98265.31;;;28.58;65.07
10618;BME280;5356;43.526;26.534;2022-09-16T14:35:02;98268.34;;;28.53;66.22
10618;BME280;5356;43.526;26.534;2022-09-16T14:37:33;98277.28;;;28.50;66.74
10618;BME280;5356;43.526;26.534;2022-09-16T14:40:05;98266.44;;;28.37;67.86
10618;BME280;5356;43.526;26.534;2022-09-16T14:42:32;98269.41;;;28.29;67.78
10618;BME280;5356;43.526;26.534;2022-09-16T14:44:58;98276.22;;;28.19;69.51
10618;BME280;5356;43.526;26.534;2022-09-16T14:50:04;98265.91;;;28.12;69.97
10618;BME280;5356;43.526;26.534;2022-09-16T14:52:32;98274.66;;;28.18;70.43
10618;BME280;5356;43.526;26.534;2022-09-16T14:54:58;98252.03;;;28.21;70.37
10618;BME280;5356;43.526;26.534;2022-09-16T14:57:26;98271.47;;;28.16;72.30
10618;BME280;5356;43.526;26.534;2022-09-16T14:59:54;98269.31;;;28.06;73.42
10618;BME280;5356;43.526;26.534;2022-09-16T15:02:40;98267.13;;;27.95;74.36
10618;BME280;5356;43.526;26.534;2022-09-16T15:05:36;98254.81;;;27.86;74.66
10618;BME280;5356;43.526;26.534;2022-09-16T15:10:34;98238.75;;;28.04;75.37
10618;BME280;5356;43.526;26.534;2022-09-16T15:13:11;98240.50;;;28.12;74.36
10618;BME280;5356;43.526;26.534;2022-09-16T15:15:44;98247.03;;;28.07;73.81
10618;BME280;5356;43.526;26.534;2022-09-16T15:20:52;98243.66;;;27.94;73.79
10618;BME280;5356;43.526;26.534;2022-09-16T15:23:25;98244.72;;;27.90;74.41
10618;BME280;5356;43.526;26.534;2022-09-16T15:26:03;98237.28;;;27.90;74.24
10618;BME280;5356;43.526;26.534;2022-09-16T15:28:30;98243.34;;;27.80;74.37
10618;BME280;5356;43.526;26.534;2022-09-16T15:30:56;98234.19;;;27.76;73.77
10618;BME280;5356;43.526;26.534;2022-09-16T15:33:32;98237.16;;;27.83;73.43
10618;BME280;5356;43.526;26.534;2022-09-16T15:35:59;98241.81;;;27.83;73.29
10618;BME280;5356;43.526;26.534;2022-09-16T15:38:26;98243.56;;;27.75;72.90
10618;BME280;5356;43.526;26.534;2022-09-16T15:41:00;98240.66;;;27.68;72.10
10618;BME280;5356;43.526;26.534;2022-09-16T15:43:28;98234.41;;;27.67;70.99
10618;BME280;5356;43.526;26.534;2022-09-16T15:46:01;98230.28;;;27.58;71.00
10618;BME280;5356;43.526;26.534;2022-09-16T15:48:31;98235.75;;;27.58;70.56
10618;BME280;5356;43.526;26.534;2022-09-16T15:51:18;98229.84;;;27.56;70.46
10618;BME280;5356;43.526;26.534;2022-09-16T15:53:47;98221.19;;;27.53;70.54
10618;BME280;5356;43.526;26.534;2022-09-16T15:56:24;98227.28;;;27.47;70.46
10618;BME280;5356;43.526;26.534;2022-09-16T15:58:56;98233.22;;;27.49;70.03
10618;BME280;5356;43.526;26.534;2022-09-16T16:01:40;98222.78;;;27.54;70.27
10618;BME280;5356;43.526;26.534;2022-09-16T16:04:10;98227.38;;;27.50;70.41
10618;BME280;5356;43.526;26.534;2022-09-16T16:12:13;98216.81;;;27.49;70.44
10618;BME280;5356;43.526;26.534;2022-09-16T16:14:41;98216.63;;;27.42;70.59
10618;BME280;5356;43.526;26.534;2022-09-16T16:17:08;98210.44;;;27.45;70.93
10618;BME280;5356;43.526;26.534;2022-09-16T16:19:35;98215.84;;;27.41;70.95
10618;BME280;5356;43.526;26.534;2022-09-16T16:22:03;98216.47;;;27.35;71.00
10618;BME280;5356;43.526;26.534;2022-09-16T16:24:28;98197.22;;;27.31;71.05
10618;BME280;5356;43.526;26.534;2022-09-16T16:26:55;98194.59;;;27.35;70.49